sensor_id;sensor_type;location;lat;lon;timestamp;pressure;altitude;pressure_sealevel;temperature;humidity
51849;BME280;38952;51.090;-1.832;2022-12-18T00:01:58;100781.78;;;-0.67;89.23
51849;BME280;38952;51.090;-1.832;2022-12-18T00:07:58;100805.81;;;-0.50;89.26
51849;BME280;38952;51.090;-1.832;2022-12-18T00:14:55;100790.59;;;-0.58;90.60
51849;BME280;38952;51.090;-1.832;2022-12-18T00:17:34;100781.88;;;-0.60;91.18
51849;BME280;38952;51.090;-1.832;2022-12-18T00:20:12;100775.00;;;-0.63;90.74
51849;BME280;38952;51.090;-1.832;2022-12-18T00:23:06;100745.56;;;-0.71;91.55
51849;BME280;38952;51.090;-1.832;2022-12-18T00:25:34;100743.25;;;-0.74;90.64
51849;BME280;38952;51.090;-1.832;2022-12-18T00:28:20;100744.25;;;-0.75;90.47
51849;BME280;38952;51.090;-1.832;2022-12-18T00:37:25;100728.41;;;-0.85;91.38
51849;BME280;38952;51.090;-1.832;2022-12-18T00:40:00;100742.50;;;-0.68;91.61
51849;BME280;38952;51.090;-1.832;2022-12-18T00:42:28;100730.56;;;-0.80;91.04
51849;BME280;38952;51.090;-1.832;2022-12-18T00:45:12;100721.59;;;-0.73;91.53
51849;BME280;38952;51.090;-1.832;2022-12-18T00:48:01;100739.38;;;-0.57;91.18
51849;BME280;38952;51.090;-1.832;2022-12-18T00:50:53;100737.06;;;-0.60;91.55
51849;BME280;38952;51.090;-1.832;2022-12-18T00:53:18;100729.28;;;-0.55;91.99
51849;BME280;38952;51.090;-1.832;2022-12-18T00:55:47;100714.72;;;-0.60;91.34
51849;BME280;38952;51.090;-1.832;2022-12-18T00:58:34;100681.38;;;-0.81;92.31
51849;BME280;38952;51.090;-1.832;2022-12-18T01:01:16;100689.72;;;-0.76;91.57
51849;BME280;38952;51.090;-1.832;2022-12-18T01:03:41;100679.81;;;-0.75;92.63
51849;BME280;38952;51.090;-1.832;2022-12-18T01:06:08;100687.03;;;-0.61;91.49
51849;BME280;38952;51.090;-1.832;2022-12-18T01:08:35;100676.28;;;-0.61;91.91
51849;BME280;38952;51.090;-1.832;2022-12-18T01:11:06;100686.00;;;-0.45;91.49
51849;BME280;38952;51.090;-1.832;2022-12-18T01:13:31;100703.31;;;-0.32;90.36
51849;BME280;38952;51.090;-1.832;2022-12-18T01:15:57;100704.69;;;-0.37;90.01
51849;BME280;38952;51.090;-1.832;2022-12-18T01:18:22;100672.94;;;-0.63;91.25
51849;BME280;38952;51.090;-1.832;2022-12-18T01:20:48;100685.34;;;-0.62;90.40
51849;BME280;38952;51.090;-1.832;2022-12-18T01:23:13;100712.41;;;-0.48;90.99
51849;BME280;38952;51.090;-1.832;2022-12-18T01:25:41;100707.41;;;-0.51;90.55
51849;BME280;38952;51.090;-1.832;2022-12-18T01:28:06;100691.94;;;-0.64;89.90
51849;BME280;38952;51.090;-1.832;2022-12-18T01:30:32;100692.22;;;-0.74;90.08
51849;BME280;38952;51.090;-1.832;2022-12-18T01:32:57;100716.66;;;-0.69;90.46
51849;BME280;38952;51.090;-1.832;2022-12-18T01:35:22;100713.34;;;-0.71;90.79
51849;BME280;38952;51.090;-1.832;2022-12-18T01:37:48;100713.72;;;-0.74;90.53
51849;BME280;38952;51.090;-1.832;2022-12-18T01:40:13;100700.84;;;-0.79;90.80
51849;BME280;38952;51.090;-1.832;2022-12-18T01:42:39;100710.66;;;-0.71;90.57
51849;BME280;38952;51.090;-1.832;2022-12-18T01:47:43;100728.53;;;-0.48;90.48
51849;BME280;38952;51.090;-1.832;2022-12-18T01:50:20;100726.31;;;-0.45;89.31
51849;BME280;38952;51.090;-1.832;2022-12-18T01:52:53;100718.78;;;-0.34;90.13
51849;BME280;38952;51.090;-1.832;2022-12-18T01:55:22;100714.91;;;-0.32;90.39
51849;BME280;38952;51.090;-1.832;2022-12-18T01:57:51;100724.53;;;-0.23;89.43
51849;BME280;38952;51.090;-1.832;2022-12-18T02:00:19;100717.09;;;-0.21;90.04
51849;BME280;38952;51.090;-1.832;2022-12-18T02:02:46;100719.31;;;-0.09;89.36
51849;BME280;38952;51.090;-1.832;2022-12-18T02:05:16;100712.53;;;-0.05;88.87
51849;BME280;38952;51.090;-1.832;2022-12-18T02:18:19;100683.44;;;-0.16;89.16
51849;BME280;38952;51.090;-1.832;2022-12-18T02:20:55;100681.81;;;-0.17;89.00
51849;BME280;38952;51.090;-1.832;2022-12-18T02:26:18;100670.47;;;-0.28;89.32
51849;BME280;38952;51.090;-1.832;2022-12-18T02:28:49;100679.59;;;-0.29;89.26
51849;BME280;38952;51.090;-1.832;2022-12-18T02:31:23;100676.78;;;-0.21;89.38
51849;BME280;38952;51.090;-1.832;2022-12-18T02:33:51;100674.47;;;-0.09;88.73
51849;BME280;38952;51.090;-1.832;2022-12-18T02:36:20;100675.50;;;0.12;88.93
51849;BME280;38952;51.090;-1.832;2022-12-18T02:38:47;100670.25;;;0.25;88.79
51849;BME280;38952;51.090;-1.832;2022-12-18T02:41:14;100671.97;;;0.33;87.87
51849;BME280;38952;51.090;-1.832;2022-12-18T02:43:46;100660.50;;;0.24;87.93
51849;BME280;38952;51.090;-1.832;2022-12-18T02:49:17;100667.47;;;0.40;87.05
51849;BME280;38952;51.090;-1.832;2022-12-18T02:57:34;100665.56;;;0.56;87.39
51849;BME280;38952;51.090;-1.832;2022-12-18T03:00:08;100644.06;;;0.62;86.40
51849;BME280;38952;51.090;-1.832;2022-12-18T03:05:16;100639.19;;;0.73;86.58
51849;BME280;38952;51.090;-1.832;2022-12-18T03:08:08;100649.47;;;0.91;86.23
51849;BME280;38952;51.090;-1.832;2022-12-18T03:10:45;100640.59;;;0.97;85.97
51849;BME280;38952;51.090;-1.832;2022-12-18T03:13:28;100644.94;;;0.98;85.10
51849;BME280;38952;51.090;-1.832;2022-12-18T03:15:57;100650.19;;;1.06;85.79
51849;BME280;38952;51.090;-1.832;2022-12-18T03:18:36;100648.16;;;1.15;84.88
51849;BME280;38952;51.090;-1.832;2022-12-18T03:21:05;100633.47;;;1.17;84.56
51849;BME280;38952;51.090;-1.832;2022-12-18T03:23:38;100637.03;;;1.25;84.78
51849;BME280;38952;51.090;-1.832;2022-12-18T03:26:10;100627.06;;;1.25;84.02
51849;BME280;38952;51.090;-1.832;2022-12-18T03:28:42;100634.53;;;1.30;84.52
51849;BME280;38952;51.090;-1.832;2022-12-18T03:31:11;100624.19;;;1.27;83.65
51849;BME280;38952;51.090;-1.832;2022-12-18T03:33:42;100631.09;;;1.36;84.12
51849;BME280;38952;51.090;-1.832;2022-12-18T03:36:09;100623.38;;;1.33;83.82
51849;BME280;38952;51.090;-1.832;2022-12-18T03:38:35;100632.97;;;1.42;83.54
51849;BME280;38952;51.090;-1.832;2022-12-18T03:41:10;100635.66;;;1.49;83.57
51849;BME280;38952;51.090;-1.832;2022-12-18T03:46:20;100627.19;;;1.52;83.26
51849;BME280;38952;51.090;-1.832;2022-12-18T03:48:53;100620.41;;;1.63;82.34
51849;BME280;38952;51.090;-1.832;2022-12-18T03:51:30;100631.38;;;1.68;82.66
51849;BME280;38952;51.090;-1.832;2022-12-18T03:54:00;100634.31;;;1.73;82.04
51849;BME280;38952;51.090;-1.832;2022-12-18T03:56:30;100623.13;;;1.76;82.26
51849;BME280;38952;51.090;-1.832;2022-12-18T03:58:58;100611.13;;;1.85;81.72
51849;BME280;38952;51.090;-1.832;2022-12-18T04:01:31;100616.31;;;1.94;81.25
51849;BME280;38952;51.090;-1.832;2022-12-18T04:04:02;100605.34;;;1.95;81.79
51849;BME280;38952;51.090;-1.832;2022-12-18T04:06:29;100585.84;;;2.00;80.90
51849;BME280;38952;51.090;-1.832;2022-12-18T04:08:57;100587.53;;;2.07;80.48
51849;BME280;38952;51.090;-1.832;2022-12-18T04:11:22;100585.66;;;2.08;80.46
51849;BME280;38952;51.090;-1.832;2022-12-18T04:13:48;100584.19;;;2.05;80.52
51849;BME280;38952;51.090;-1.832;2022-12-18T04:16:13;100580.03;;;2.03;80.15
51849;BME280;38952;51.090;-1.832;2022-12-18T04:18:39;100580.66;;;2.05;80.32
51849;BME280;38952;51.090;-1.832;2022-12-18T04:21:04;100567.19;;;2.05;80.54
51849;BME280;38952;51.090;-1.832;2022-12-18T04:23:30;100559.09;;;2.05;80.18
51849;BME280;38952;51.090;-1.832;2022-12-18T04:25:55;100555.56;;;2.11;80.52
51849;BME280;38952;51.090;-1.832;2022-12-18T04:28:20;100557.22;;;2.12;79.70
51849;BME280;38952;51.090;-1.832;2022-12-18T04:30:46;100539.97;;;2.13;79.68
51849;BME280;38952;51.090;-1.832;2022-12-18T04:33:13;100538.94;;;2.14;79.55
51849;BME280;38952;51.090;-1.832;2022-12-18T04:35:39;100540.19;;;2.12;79.53
51849;BME280;38952;51.090;-1.832;2022-12-18T04:38:06;100538.13;;;2.07;79.37
51849;BME280;38952;51.090;-1.832;2022-12-18T04:40:34;100534.59;;;2.06;79.45
51849;BME280;38952;51.090;-1.832;2022-12-18T04:43:00;100533.97;;;2.11;80.16
51849;BME280;38952;51.090;-1.832;2022-12-18T04:45:25;100527.53;;;2.12;79.85
51849;BME280;38952;51.090;-1.832;2022-12-18T04:47:50;100533.97;;;2.11;78.80
51849;BME280;38952;51.090;-1.832;2022-12-18T04:50:16;100538.75;;;2.09;78.87
51849;BME280;38952;51.090;-1.832;2022-12-18T04:52:41;100527.75;;;2.04;78.83
51849;BME280;38952;51.090;-1.832;2022-12-18T04:55:07;100524.44;;;2.02;79.06
51849;BME280;38952;51.090;-1.832;2022-12-18T04:57:32;100497.03;;;1.91;79.44
51849;BME280;38952;51.090;-1.832;2022-12-18T04:59:58;100524.44;;;2.02;79.39
51849;BME280;38952;51.090;-1.832;2022-12-18T05:02:23;100501.81;;;1.96;78.85
51849;BME280;38952;51.090;-1.832;2022-12-18T05:04:49;100499.13;;;1.96;78.62
51849;BME280;38952;51.090;-1.832;2022-12-18T05:07:14;100499.50;;;2.00;78.82
51849;BME280;38952;51.090;-1.832;2022-12-18T05:09:40;100485.63;;;1.96;78.84
51849;BME280;38952;51.090;-1.832;2022-12-18T05:12:05;100491.66;;;2.05;78.86
51849;BME280;38952;51.090;-1.832;2022-12-18T05:14:30;100484.38;;;2.05;78.68
51849;BME280;38952;51.090;-1.832;2022-12-18T05:16:56;100486.44;;;2.23;78.39
51849;BME280;38952;51.090;-1.832;2022-12-18T05:19:21;100468.78;;;2.27;78.19
51849;BME280;38952;51.090;-1.832;2022-12-18T05:21:47;100481.03;;;2.37;78.08
51849;BME280;38952;51.090;-1.832;2022-12-18T05:24:12;100473.34;;;2.34;77.83
51849;BME280;38952;51.090;-1.832;2022-12-18T05:26:38;100463.59;;;2.33;77.45
51849;BME280;38952;51.090;-1.832;2022-12-18T05:29:04;100457.16;;;2.34;77.76
51849;BME280;38952;51.090;-1.832;2022-12-18T05:31:29;100452.16;;;2.31;77.83
51849;BME280;38952;51.090;-1.832;2022-12-18T05:33:54;100435.56;;;2.34;77.80
51849;BME280;38952;51.090;-1.832;2022-12-18T05:36:20;100442.19;;;2.38;78.07
51849;BME280;38952;51.090;-1.832;2022-12-18T05:38:45;100437.63;;;2.38;78.09
51849;BME280;38952;51.090;-1.832;2022-12-18T05:41:11;100422.69;;;2.36;77.65
51849;BME280;38952;51.090;-1.832;2022-12-18T05:43:37;100432.63;;;2.42;77.78
51849;BME280;38952;51.090;-1.832;2022-12-18T05:46:10;100418.69;;;2.45;77.91
51849;BME280;38952;51.090;-1.832;2022-12-18T05:48:36;100429.72;;;2.50;77.84
51849;BME280;38952;51.090;-1.832;2022-12-18T05:51:07;100426.97;;;2.57;78.04
51849;BME280;38952;51.090;-1.832;2022-12-18T05:53:33;100416.59;;;2.60;77.54
51849;BME280;38952;51.090;-1.832;2022-12-18T05:56:03;100422.56;;;2.69;77.59
51849;BME280;38952;51.090;-1.832;2022-12-18T05:58:30;100420.03;;;2.81;77.26
51849;BME280;38952;51.090;-1.832;2022-12-18T06:00:56;100408.00;;;2.77;76.90
51849;BME280;38952;51.090;-1.832;2022-12-18T06:03:21;100406.31;;;2.76;76.82
51849;BME280;38952;51.090;-1.832;2022-12-18T06:05:47;100405.50;;;2.82;76.66
51849;BME280;38952;51.090;-1.832;2022-12-18T06:08:13;100412.13;;;2.86;76.61
51849;BME280;38952;51.090;-1.832;2022-12-18T06:10:39;100409.41;;;2.86;76.76
51849;BME280;38952;51.090;-1.832;2022-12-18T06:13:05;100411.69;;;2.89;76.71
51849;BME280;38952;51.090;-1.832;2022-12-18T06:15:38;100409.78;;;2.96;77.01
51849;BME280;38952;51.090;-1.832;2022-12-18T06:18:03;100419.53;;;2.97;76.65
51849;BME280;38952;51.090;-1.832;2022-12-18T06:20:29;100410.38;;;2.99;76.37
51849;BME280;38952;51.090;-1.832;2022-12-18T06:22:54;100403.50;;;3.03;76.52
51849;BME280;38952;51.090;-1.832;2022-12-18T06:25:20;100402.25;;;3.05;77.23
51849;BME280;38952;51.090;-1.832;2022-12-18T06:27:47;100403.22;;;3.11;76.80
51849;BME280;38952;51.090;-1.832;2022-12-18T06:30:13;100372.38;;;2.93;76.49
51849;BME280;38952;51.090;-1.832;2022-12-18T06:32:38;100387.47;;;3.08;76.83
51849;BME280;38952;51.090;-1.832;2022-12-18T06:35:04;100378.75;;;3.06;76.30
51849;BME280;38952;51.090;-1.832;2022-12-18T06:37:31;100383.69;;;3.16;76.89
51849;BME280;38952;51.090;-1.832;2022-12-18T06:39:56;100395.28;;;3.23;77.15
51849;BME280;38952;51.090;-1.832;2022-12-18T06:42:24;100395.69;;;3.20;76.24
51849;BME280;38952;51.090;-1.832;2022-12-18T06:44:50;100400.72;;;3.16;76.65
51849;BME280;38952;51.090;-1.832;2022-12-18T06:47:27;100393.44;;;3.17;76.92
51849;BME280;38952;51.090;-1.832;2022-12-18T06:49:53;100404.22;;;3.23;76.60
51849;BME280;38952;51.090;-1.832;2022-12-18T06:52:18;100376.66;;;3.08;77.39
51849;BME280;38952;51.090;-1.832;2022-12-18T06:54:44;100380.34;;;3.13;77.09
51849;BME280;38952;51.090;-1.832;2022-12-18T06:57:09;100400.63;;;3.29;76.84
51849;BME280;38952;51.090;-1.832;2022-12-18T06:59:37;100417.28;;;3.26;76.91
51849;BME280;38952;51.090;-1.832;2022-12-18T07:02:02;100411.69;;;3.21;76.70
51849;BME280;38952;51.090;-1.832;2022-12-18T07:04:29;100402.44;;;3.04;76.86
51849;BME280;38952;51.090;-1.832;2022-12-18T07:06:57;100410.75;;;3.02;77.79
51849;BME280;38952;51.090;-1.832;2022-12-18T07:09:23;100403.66;;;3.14;77.71
51849;BME280;38952;51.090;-1.832;2022-12-18T07:11:48;100378.13;;;3.04;77.76
51849;BME280;38952;51.090;-1.832;2022-12-18T07:14:14;100406.56;;;3.13;77.32
51849;BME280;38952;51.090;-1.832;2022-12-18T07:16:45;100427.75;;;3.16;77.56
51849;BME280;38952;51.090;-1.832;2022-12-18T07:19:15;100392.50;;;2.97;77.11
51849;BME280;38952;51.090;-1.832;2022-12-18T07:21:41;100379.44;;;2.94;77.49
51849;BME280;38952;51.090;-1.832;2022-12-18T07:24:11;100362.56;;;2.99;78.04
51849;BME280;38952;51.090;-1.832;2022-12-18T07:26:39;100346.81;;;2.96;77.81
51849;BME280;38952;51.090;-1.832;2022-12-18T07:29:04;100391.56;;;3.17;77.38
51849;BME280;38952;51.090;-1.832;2022-12-18T07:31:29;100381.03;;;3.09;77.66
51849;BME280;38952;51.090;-1.832;2022-12-18T07:33:56;100378.75;;;3.06;77.56
51849;BME280;38952;51.090;-1.832;2022-12-18T07:36:37;100363.59;;;3.05;77.36
51849;BME280;38952;51.090;-1.832;2022-12-18T07:39:02;100344.66;;;3.05;77.84
51849;BME280;38952;51.090;-1.832;2022-12-18T07:41:31;100360.56;;;3.20;77.29
51849;BME280;38952;51.090;-1.832;2022-12-18T07:43:58;100356.22;;;3.19;77.54
51849;BME280;38952;51.090;-1.832;2022-12-18T07:46:24;100380.22;;;3.34;77.62
51849;BME280;38952;51.090;-1.832;2022-12-18T07:48:49;100380.56;;;3.44;77.45
51849;BME280;38952;51.090;-1.832;2022-12-18T07:51:15;100361.13;;;3.28;76.95
51849;BME280;38952;51.090;-1.832;2022-12-18T07:53:41;100393.09;;;3.38;77.21
51849;BME280;38952;51.090;-1.832;2022-12-18T07:56:08;100391.47;;;3.30;77.00
51849;BME280;38952;51.090;-1.832;2022-12-18T07:58:34;100398.50;;;3.38;77.33
51849;BME280;38952;51.090;-1.832;2022-12-18T08:01:11;100382.34;;;3.31;77.03
51849;BME280;38952;51.090;-1.832;2022-12-18T08:03:38;100393.91;;;3.39;77.38
51849;BME280;38952;51.090;-1.832;2022-12-18T08:06:06;100381.56;;;3.24;76.71
51849;BME280;38952;51.090;-1.832;2022-12-18T08:08:33;100396.00;;;3.37;77.84
51849;BME280;38952;51.090;-1.832;2022-12-18T08:10:59;100413.03;;;3.37;77.03
51849;BME280;38952;51.090;-1.832;2022-12-18T08:13:25;100414.72;;;3.38;77.53
51849;BME280;38952;51.090;-1.832;2022-12-18T08:16:05;100417.84;;;3.35;77.28
51849;BME280;38952;51.090;-1.832;2022-12-18T08:18:36;100423.34;;;3.22;77.77
51849;BME280;38952;51.090;-1.832;2022-12-18T08:23:40;100411.63;;;2.96;78.89
51849;BME280;38952;51.090;-1.832;2022-12-18T08:26:06;100410.38;;;2.99;79.37
51849;BME280;38952;51.090;-1.832;2022-12-18T08:28:32;100415.19;;;2.96;79.70
51849;BME280;38952;51.090;-1.832;2022-12-18T08:30:57;100412.06;;;2.93;80.49
51849;BME280;38952;51.090;-1.832;2022-12-18T08:33:23;100391.34;;;2.87;80.27
51849;BME280;38952;51.090;-1.832;2022-12-18T08:35:48;100388.41;;;2.88;80.54
51849;BME280;38952;51.090;-1.832;2022-12-18T08:38:14;100391.13;;;2.88;81.45
51849;BME280;38952;51.090;-1.832;2022-12-18T08:40:39;100392.59;;;2.84;81.20
51849;BME280;38952;51.090;-1.832;2022-12-18T08:43:05;100397.16;;;2.84;82.02
51849;BME280;38952;51.090;-1.832;2022-12-18T08:45:49;100398.34;;;2.94;81.73
51849;BME280;38952;51.090;-1.832;2022-12-18T08:48:14;100393.97;;;2.93;81.55
51849;BME280;38952;51.090;-1.832;2022-12-18T08:50:40;100403.09;;;2.99;82.16
51849;BME280;38952;51.090;-1.832;2022-12-18T08:53:06;100393.31;;;3.05;81.90
51849;BME280;38952;51.090;-1.832;2022-12-18T08:55:31;100375.19;;;3.12;81.90
51849;BME280;38952;51.090;-1.832;2022-12-18T08:57:57;100365.59;;;3.16;81.60
51849;BME280;38952;51.090;-1.832;2022-12-18T09:00:22;100362.00;;;3.22;81.55
51849;BME280;38952;51.090;-1.832;2022-12-18T09:02:47;100355.59;;;3.17;82.13
51849;BME280;38952;51.090;-1.832;2022-12-18T09:05:13;100362.00;;;3.22;82.18
51849;BME280;38952;51.090;-1.832;2022-12-18T09:07:38;100359.66;;;3.32;81.71
51849;BME280;38952;51.090;-1.832;2022-12-18T09:10:04;100356.50;;;3.36;82.10
51849;BME280;38952;51.090;-1.832;2022-12-18T09:12:30;100356.50;;;3.36;81.94
51849;BME280;38952;51.090;-1.832;2022-12-18T09:14:55;100348.00;;;3.32;81.77
51849;BME280;38952;51.090;-1.832;2022-12-18T09:17:21;100344.06;;;3.35;82.49
51849;BME280;38952;51.090;-1.832;2022-12-18T09:19:47;100340.47;;;3.41;82.40
51849;BME280;38952;51.090;-1.832;2022-12-18T09:22:12;100329.97;;;3.51;82.29
51849;BME280;38952;51.090;-1.832;2022-12-18T09:24:38;100319.94;;;3.58;81.91
51849;BME280;38952;51.090;-1.832;2022-12-18T09:27:03;100320.84;;;3.71;82.18
51849;BME280;38952;51.090;-1.832;2022-12-18T09:29:28;100325.78;;;3.74;82.12
51849;BME280;38952;51.090;-1.832;2022-12-18T09:31:54;100316.63;;;3.75;81.97
51849;BME280;38952;51.090;-1.832;2022-12-18T09:34:19;100327.41;;;3.81;81.70
51849;BME280;38952;51.090;-1.832;2022-12-18T09:36:47;100338.09;;;3.95;82.40
51849;BME280;38952;51.090;-1.832;2022-12-18T09:39:12;100328.16;;;3.89;81.86
51849;BME280;38952;51.090;-1.832;2022-12-18T09:41:55;100324.94;;;3.80;81.50
51849;BME280;38952;51.090;-1.832;2022-12-18T09:47:30;100343.69;;;3.75;82.55
51849;BME280;38952;51.090;-1.832;2022-12-18T09:50:02;100330.47;;;3.66;82.48
51849;BME280;38952;51.090;-1.832;2022-12-18T09:52:44;100335.47;;;3.63;82.86
51849;BME280;38952;51.090;-1.832;2022-12-18T09:55:25;100324.88;;;3.61;84.22
51849;BME280;38952;51.090;-1.832;2022-12-18T09:57:58;100330.66;;;3.65;83.64
51849;BME280;38952;51.090;-1.832;2022-12-18T10:00:31;100322.78;;;3.63;84.56
51849;BME280;38952;51.090;-1.832;2022-12-18T10:03:01;100294.69;;;3.64;84.59
51849;BME280;38952;51.090;-1.832;2022-12-18T10:08:18;100297.94;;;3.73;84.64
51849;BME280;38952;51.090;-1.832;2022-12-18T10:10:53;100313.19;;;3.86;85.10
51849;BME280;38952;51.090;-1.832;2022-12-18T10:13:31;100317.72;;;3.92;84.36
51849;BME280;38952;51.090;-1.832;2022-12-18T10:16:11;100322.97;;;4.06;84.59
51849;BME280;38952;51.090;-1.832;2022-12-18T10:21:13;100318.63;;;4.05;83.57
51849;BME280;38952;51.090;-1.832;2022-12-18T10:26:47;100297.28;;;3.96;84.29
51849;BME280;38952;51.090;-1.832;2022-12-18T10:29:15;100285.09;;;4.06;85.12
51849;BME280;38952;51.090;-1.832;2022-12-18T10:31:40;100264.63;;;4.10;84.44
51849;BME280;38952;51.090;-1.832;2022-12-18T10:34:13;100262.38;;;4.25;83.68
51849;BME280;38952;51.090;-1.832;2022-12-18T10:36:38;100257.47;;;4.34;84.50
51849;BME280;38952;51.090;-1.832;2022-12-18T10:39:17;100252.56;;;4.43;83.48
51849;BME280;38952;51.090;-1.832;2022-12-18T10:41:43;100231.69;;;4.31;83.55
51849;BME280;38952;51.090;-1.832;2022-12-18T10:46:37;100224.41;;;4.44;84.07
51849;BME280;38952;51.090;-1.832;2022-12-18T10:49:02;100209.25;;;4.43;84.30
51849;BME280;38952;51.090;-1.832;2022-12-18T10:51:30;100211.13;;;4.54;84.04
51849;BME280;38952;51.090;-1.832;2022-12-18T10:54:15;100220.13;;;4.66;84.46
51849;BME280;38952;51.090;-1.832;2022-12-18T10:56:42;100199.28;;;4.67;83.99
51849;BME280;38952;51.090;-1.832;2022-12-18T10:59:11;100198.94;;;4.63;84.46
51849;BME280;38952;51.090;-1.832;2022-12-18T11:01:56;100197.00;;;4.52;84.17
51849;BME280;38952;51.090;-1.832;2022-12-18T11:04:30;100193.72;;;4.50;84.52
51849;BME280;38952;51.090;-1.832;2022-12-18T11:07:02;100177.09;;;4.46;85.58
51849;BME280;38952;51.090;-1.832;2022-12-18T11:09:40;100169.59;;;4.48;85.20
51849;BME280;38952;51.090;-1.832;2022-12-18T11:12:16;100173.22;;;4.54;85.53
51849;BME280;38952;51.090;-1.832;2022-12-18T11:14:46;100167.81;;;4.54;85.33
51849;BME280;38952;51.090;-1.832;2022-12-18T11:17:20;100172.31;;;4.60;86.25
51849;BME280;38952;51.090;-1.832;2022-12-18T11:19:52;100149.69;;;4.54;86.35
51849;BME280;38952;51.090;-1.832;2022-12-18T11:22:22;100145.22;;;4.60;87.38
51849;BME280;38952;51.090;-1.832;2022-12-18T11:27:24;100143.25;;;4.67;88.06
51849;BME280;38952;51.090;-1.832;2022-12-18T11:29:51;100135.56;;;4.64;88.26
51849;BME280;38952;51.090;-1.832;2022-12-18T11:34:53;100125.91;;;4.80;87.97
51849;BME280;38952;51.090;-1.832;2022-12-18T11:37:21;100118.03;;;4.79;88.29
51849;BME280;38952;51.090;-1.832;2022-12-18T11:39:54;100114.84;;;4.70;87.66
51849;BME280;38952;51.090;-1.832;2022-12-18T11:42:28;100110.13;;;4.65;88.74
51849;BME280;38952;51.090;-1.832;2022-12-18T11:47:42;100092.13;;;4.47;89.64
51849;BME280;38952;51.090;-1.832;2022-12-18T11:50:56;100102.13;;;4.47;91.61
51849;BME280;38952;51.090;-1.832;2022-12-18T11:53:43;100061.59;;;4.28;92.07
51849;BME280;38952;51.090;-1.832;2022-12-18T11:59:07;100074.34;;;4.40;93.57
51849;BME280;38952;51.090;-1.832;2022-12-18T12:05:17;100050.16;;;4.26;95.58
51849;BME280;38952;51.090;-1.832;2022-12-18T13:12:27;99914.84;;;4.79;100.00
51849;BME280;38952;51.090;-1.832;2022-12-18T13:18:56;99909.44;;;4.79;100.00
51849;BME280;38952;51.090;-1.832;2022-12-18T13:31:07;99915.91;;;5.18;100.00
51849;BME280;38952;51.090;-1.832;2022-12-18T13:45:00;99887.69;;;5.65;100.00
51849;BME280;38952;51.090;-1.832;2022-12-18T13:47:45;99878.72;;;5.65;100.00
51849;BME280;38952;51.090;-1.832;2022-12-18T13:50:26;99862.13;;;5.61;100.00
51849;BME280;38952;51.090;-1.832;2022-12-18T13:52:52;99835.31;;;5.65;100.00
51849;BME280;38952;51.090;-1.832;2022-12-18T13:55:42;99851.88;;;5.85;100.00
51849;BME280;38952;51.090;-1.832;2022-12-18T13:58:31;99854.19;;;5.93;100.00
51849;BME280;38952;51.090;-1.832;2022-12-18T14:04:16;99813.22;;;5.95;100.00
51849;BME280;38952;51.090;-1.832;2022-12-18T14:07:31;99834.75;;;6.19;100.00
51849;BME280;38952;51.090;-1.832;2022-12-18T14:09:58;99824.91;;;6.13;100.00
51849;BME280;38952;51.090;-1.832;2022-12-18T14:13:15;99816.84;;;6.18;100.00
51849;BME280;38952;51.090;-1.832;2022-12-18T14:15:51;99796.19;;;6.17;100.00
51849;BME280;38952;51.090;-1.832;2022-12-18T14:25:45;99806.84;;;6.45;100.00
51849;BME280;38952;51.090;-1.832;2022-12-18T14:28:19;99792.69;;;6.43;100.00
51849;BME280;38952;51.090;-1.832;2022-12-18T14:33:58;99778.31;;;6.43;100.00
51849;BME280;38952;51.090;-1.832;2022-12-18T14:36:36;99778.59;;;6.46;100.00
51849;BME280;38952;51.090;-1.832;2022-12-18T14:39:32;99781.44;;;6.57;100.00
51849;BME280;38952;51.090;-1.832;2022-12-18T14:42:15;99780.53;;;6.51;100.00
51849;BME280;38952;51.090;-1.832;2022-12-18T14:48:11;99784.22;;;6.62;100.00
51849;BME280;38952;51.090;-1.832;2022-12-18T14:54:47;99796.00;;;6.73;100.00
51849;BME280;38952;51.090;-1.832;2022-12-18T15:00:57;99782.72;;;6.76;100.00
51849;BME280;38952;51.090;-1.832;2022-12-18T15:03:22;99768.72;;;6.62;100.00
51849;BME280;38952;51.090;-1.832;2022-12-18T15:10:00;99747.75;;;6.58;100.00
51849;BME280;38952;51.090;-1.832;2022-12-18T15:13:05;99785.56;;;6.87;100.00
51849;BME280;38952;51.090;-1.832;2022-12-18T15:16:24;99741.28;;;6.64;100.00
51849;BME280;38952;51.090;-1.832;2022-12-18T15:19:43;99752.47;;;6.68;100.00
51849;BME280;38952;51.090;-1.832;2022-12-18T15:26:30;99768.22;;;6.93;100.00
51849;BME280;38952;51.090;-1.832;2022-12-18T15:43:07;99706.59;;;6.71;100.00
51849;BME280;38952;51.090;-1.832;2022-12-18T15:46:26;99696.75;;;6.65;100.00
51849;BME280;38952;51.090;-1.832;2022-12-18T15:52:14;99690.28;;;6.71;100.00
51849;BME280;38952;51.090;-1.832;2022-12-18T15:58:30;99686.31;;;6.84;100.00
51849;BME280;38952;51.090;-1.832;2022-12-18T16:04:39;99702.25;;;7.03;100.00
51849;BME280;38952;51.090;-1.832;2022-12-18T16:21:26;99692.31;;;7.24;100.00
51849;BME280;38952;51.090;-1.832;2022-12-18T16:27:50;99654.72;;;7.10;100.00
51849;BME280;38952;51.090;-1.832;2022-12-18T16:40:58;99629.16;;;7.11;100.00
51849;BME280;38952;51.090;-1.832;2022-12-18T16:43:50;99660.31;;;7.36;100.00
51849;BME280;38952;51.090;-1.832;2022-12-18T16:46:34;99687.56;;;7.46;100.00
51849;BME280;38952;51.090;-1.832;2022-12-18T17:03:49;99656.28;;;7.49;100.00
51849;BME280;38952;51.090;-1.832;2022-12-18T17:06:43;99592.22;;;7.15;100.00
51849;BME280;38952;51.090;-1.832;2022-12-18T17:13:00;99626.78;;;7.25;100.00
51849;BME280;38952;51.090;-1.832;2022-12-18T17:16:05;99656.22;;;7.39;100.00
51849;BME280;38952;51.090;-1.832;2022-12-18T17:22:04;99642.84;;;7.27;100.00
51849;BME280;38952;51.090;-1.832;2022-12-18T17:24:56;99656.81;;;7.46;100.00
51849;BME280;38952;51.090;-1.832;2022-12-18T17:27:51;99644.53;;;7.38;100.00
51849;BME280;38952;51.090;-1.832;2022-12-18T17:30:57;99640.22;;;7.42;100.00
51849;BME280;38952;51.090;-1.832;2022-12-18T17:34:14;99613.50;;;7.29;100.00
51849;BME280;38952;51.090;-1.832;2022-12-18T17:36:50;99631.47;;;7.35;100.00
51849;BME280;38952;51.090;-1.832;2022-12-18T17:39:22;99622.78;;;7.33;100.00
51849;BME280;38952;51.090;-1.832;2022-12-18T17:41:53;99636.41;;;7.43;100.00
51849;BME280;38952;51.090;-1.832;2022-12-18T17:44:34;99610.78;;;7.34;100.00